sensor_id;sensor_type;location;lat;lon;timestamp;temperature;humidity
58413;DHT22;44209;52.952;6.790;2022-12-18T00:01:34;-3.00;99.90
58413;DHT22;44209;52.952;6.790;2022-12-18T00:04:02;-2.90;99.90
58413;DHT22;44209;52.952;6.790;2022-12-18T00:06:32;-2.90;99.90
58413;DHT22;44209;52.952;6.790;2022-12-18T00:08:59;-2.90;99.90
58413;DHT22;44209;52.952;6.790;2022-12-18T00:11:27;-2.90;99.90
58413;DHT22;44209;52.952;6.790;2022-12-18T00:13:55;-2.90;99.90
58413;DHT22;44209;52.952;6.790;2022-12-18T00:16:23;-2.90;99.90
58413;DHT22;44209;52.952;6.790;2022-12-18T00:18:51;-2.90;99.90
58413;DHT22;44209;52.952;6.790;2022-12-18T00:21:17;-2.90;99.90
58413;DHT22;44209;52.952;6.790;2022-12-18T00:23:44;-2.90;99.90
58413;DHT22;44209;52.952;6.790;2022-12-18T00:26:16;-2.90;99.90
58413;DHT22;44209;52.952;6.790;2022-12-18T00:28:42;-2.90;99.90
58413;DHT22;44209;52.952;6.790;2022-12-18T00:31:11;-2.90;99.90
58413;DHT22;44209;52.952;6.790;2022-12-18T00:33:37;-2.90;99.90
58413;DHT22;44209;52.952;6.790;2022-12-18T00:36:06;-2.90;99.90
58413;DHT22;44209;52.952;6.790;2022-12-18T00:38:33;-2.90;99.90
58413;DHT22;44209;52.952;6.790;2022-12-18T00:40:59;-2.90;99.90
58413;DHT22;44209;52.952;6.790;2022-12-18T00:43:25;-3.00;99.90
58413;DHT22;44209;52.952;6.790;2022-12-18T00:45:50;-2.90;99.90
58413;DHT22;44209;52.952;6.790;2022-12-18T00:48:16;-3.00;99.90
58413;DHT22;44209;52.952;6.790;2022-12-18T00:50:42;-3.00;99.90
58413;DHT22;44209;52.952;6.790;2022-12-18T00:53:11;-3.00;99.90
58413;DHT22;44209;52.952;6.790;2022-12-18T00:55:39;-3.00;99.90
58413;DHT22;44209;52.952;6.790;2022-12-18T00:58:05;-2.90;99.90
58413;DHT22;44209;52.952;6.790;2022-12-18T01:00:30;-2.90;99.90
58413;DHT22;44209;52.952;6.790;2022-12-18T01:02:56;-2.90;99.90
58413;DHT22;44209;52.952;6.790;2022-12-18T01:05:22;-2.90;99.90
58413;DHT22;44209;52.952;6.790;2022-12-18T01:07:48;-2.90;99.90
58413;DHT22;44209;52.952;6.790;2022-12-18T01:10:14;-2.90;99.90
58413;DHT22;44209;52.952;6.790;2022-12-18T01:12:39;-2.90;99.90
58413;DHT22;44209;52.952;6.790;2022-12-18T01:15:06;-3.00;99.90
58413;DHT22;44209;52.952;6.790;2022-12-18T01:17:33;-3.00;99.90
58413;DHT22;44209;52.952;6.790;2022-12-18T01:19:58;-3.00;99.90
58413;DHT22;44209;52.952;6.790;2022-12-18T01:22:24;-3.00;99.90
58413;DHT22;44209;52.952;6.790;2022-12-18T01:24:50;-3.00;99.90
58413;DHT22;44209;52.952;6.790;2022-12-18T01:27:15;-3.10;99.90
58413;DHT22;44209;52.952;6.790;2022-12-18T01:29:41;-3.10;99.90
58413;DHT22;44209;52.952;6.790;2022-12-18T01:32:08;-3.10;99.90
58413;DHT22;44209;52.952;6.790;2022-12-18T01:34:36;-3.20;99.90
58413;DHT22;44209;52.952;6.790;2022-12-18T01:37:03;-3.20;99.90
58413;DHT22;44209;52.952;6.790;2022-12-18T01:39:29;-3.20;99.90
58413;DHT22;44209;52.952;6.790;2022-12-18T01:41:55;-3.30;99.90
58413;DHT22;44209;52.952;6.790;2022-12-18T01:45:03;-3.30;99.90
58413;DHT22;44209;52.952;6.790;2022-12-18T01:47:33;-3.30;99.90
58413;DHT22;44209;52.952;6.790;2022-12-18T01:52:38;-3.40;99.90
58413;DHT22;44209;52.952;6.790;2022-12-18T01:55:05;-3.40;99.90
58413;DHT22;44209;52.952;6.790;2022-12-18T01:57:32;-3.50;99.90
58413;DHT22;44209;52.952;6.790;2022-12-18T02:00:04;-3.50;99.90
58413;DHT22;44209;52.952;6.790;2022-12-18T02:02:30;-3.60;99.90
58413;DHT22;44209;52.952;6.790;2022-12-18T02:04:56;-3.60;99.90
58413;DHT22;44209;52.952;6.790;2022-12-18T02:10:15;-3.70;99.90
58413;DHT22;44209;52.952;6.790;2022-12-18T02:15:36;-3.80;99.90
58413;DHT22;44209;52.952;6.790;2022-12-18T02:18:10;-3.80;99.90
58413;DHT22;44209;52.952;6.790;2022-12-18T02:20:51;-3.90;99.90
58413;DHT22;44209;52.952;6.790;2022-12-18T02:28:59;-3.90;99.90
58413;DHT22;44209;52.952;6.790;2022-12-18T02:31:29;-4.00;99.90
58413;DHT22;44209;52.952;6.790;2022-12-18T02:33:58;-4.00;99.90
58413;DHT22;44209;52.952;6.790;2022-12-18T02:36:27;-4.00;99.90
58413;DHT22;44209;52.952;6.790;2022-12-18T02:38:54;-4.10;99.90
58413;DHT22;44209;52.952;6.790;2022-12-18T02:41:25;-4.10;99.90
58413;DHT22;44209;52.952;6.790;2022-12-18T02:44:00;-4.10;99.90
58413;DHT22;44209;52.952;6.790;2022-12-18T02:46:40;-4.20;99.90
58413;DHT22;44209;52.952;6.790;2022-12-18T02:51:52;-4.20;99.90
58413;DHT22;44209;52.952;6.790;2022-12-18T02:56:56;-4.20;99.90
58413;DHT22;44209;52.952;6.790;2022-12-18T02:59:38;-4.30;99.90
58413;DHT22;44209;52.952;6.790;2022-12-18T03:02:09;-4.30;99.90
58413;DHT22;44209;52.952;6.790;2022-12-18T03:07:10;-4.40;99.90
58413;DHT22;44209;52.952;6.790;2022-12-18T03:09:43;-4.40;99.90
58413;DHT22;44209;52.952;6.790;2022-12-18T03:12:32;-4.40;99.90
58413;DHT22;44209;52.952;6.790;2022-12-18T03:15:15;-4.40;99.90
58413;DHT22;44209;52.952;6.790;2022-12-18T03:17:47;-4.50;99.90
58413;DHT22;44209;52.952;6.790;2022-12-18T03:20:18;-4.50;99.90
58413;DHT22;44209;52.952;6.790;2022-12-18T03:22:47;-4.50;99.90
58413;DHT22;44209;52.952;6.790;2022-12-18T03:25:16;-4.50;99.90
58413;DHT22;44209;52.952;6.790;2022-12-18T03:27:47;-4.50;99.90
58413;DHT22;44209;52.952;6.790;2022-12-18T03:30:15;-4.60;99.90
58413;DHT22;44209;52.952;6.790;2022-12-18T03:33:02;-4.60;99.90
58413;DHT22;44209;52.952;6.790;2022-12-18T03:35:34;-4.60;99.90
58413;DHT22;44209;52.952;6.790;2022-12-18T03:38:01;-4.60;99.90
58413;DHT22;44209;52.952;6.790;2022-12-18T03:46:05;-4.60;99.90
58413;DHT22;44209;52.952;6.790;2022-12-18T03:48:41;-4.60;99.90
58413;DHT22;44209;52.952;6.790;2022-12-18T03:51:15;-4.60;99.90
58413;DHT22;44209;52.952;6.790;2022-12-18T03:54:00;-4.70;99.90
58413;DHT22;44209;52.952;6.790;2022-12-18T03:56:32;-4.70;99.90
58413;DHT22;44209;52.952;6.790;2022-12-18T03:59:00;-4.70;99.90
58413;DHT22;44209;52.952;6.790;2022-12-18T04:01:37;-4.70;99.90
58413;DHT22;44209;52.952;6.790;2022-12-18T04:04:05;-4.70;99.90
58413;DHT22;44209;52.952;6.790;2022-12-18T04:06:32;-4.70;99.90
58413;DHT22;44209;52.952;6.790;2022-12-18T04:08:59;-4.70;99.90
58413;DHT22;44209;52.952;6.790;2022-12-18T04:11:25;-4.70;99.90
58413;DHT22;44209;52.952;6.790;2022-12-18T04:13:55;-4.70;99.90
58413;DHT22;44209;52.952;6.790;2022-12-18T04:16:23;-4.70;99.90
58413;DHT22;44209;52.952;6.790;2022-12-18T04:18:48;-4.80;99.90
58413;DHT22;44209;52.952;6.790;2022-12-18T04:21:14;-4.80;99.90
58413;DHT22;44209;52.952;6.790;2022-12-18T04:23:40;-4.80;99.90
58413;DHT22;44209;52.952;6.790;2022-12-18T04:26:05;-4.80;99.90
58413;DHT22;44209;52.952;6.790;2022-12-18T04:28:31;-4.80;99.90
58413;DHT22;44209;52.952;6.790;2022-12-18T04:30:57;-4.90;99.90
58413;DHT22;44209;52.952;6.790;2022-12-18T04:33:22;-4.90;99.90
58413;DHT22;44209;52.952;6.790;2022-12-18T04:35:48;-4.90;99.90
58413;DHT22;44209;52.952;6.790;2022-12-18T04:38:14;-4.90;99.90
58413;DHT22;44209;52.952;6.790;2022-12-18T04:40:41;-4.90;99.90
58413;DHT22;44209;52.952;6.790;2022-12-18T04:43:06;-4.90;99.90
58413;DHT22;44209;52.952;6.790;2022-12-18T04:45:32;-4.90;99.90
58413;DHT22;44209;52.952;6.790;2022-12-18T04:47:59;-5.00;99.90
58413;DHT22;44209;52.952;6.790;2022-12-18T04:50:25;-5.00;99.90
58413;DHT22;44209;52.952;6.790;2022-12-18T04:52:50;-5.00;99.90
58413;DHT22;44209;52.952;6.790;2022-12-18T04:55:16;-5.00;99.90
58413;DHT22;44209;52.952;6.790;2022-12-18T04:57:42;-5.00;99.90
58413;DHT22;44209;52.952;6.790;2022-12-18T05:00:08;-5.10;99.90
58413;DHT22;44209;52.952;6.790;2022-12-18T05:02:34;-5.10;99.90
58413;DHT22;44209;52.952;6.790;2022-12-18T05:05:00;-5.10;99.90
58413;DHT22;44209;52.952;6.790;2022-12-18T05:07:25;-5.10;99.90
58413;DHT22;44209;52.952;6.790;2022-12-18T05:09:51;-5.20;99.90
58413;DHT22;44209;52.952;6.790;2022-12-18T05:12:17;-5.10;99.90
58413;DHT22;44209;52.952;6.790;2022-12-18T05:14:42;-5.20;99.90
58413;DHT22;44209;52.952;6.790;2022-12-18T05:17:08;-5.20;99.90
58413;DHT22;44209;52.952;6.790;2022-12-18T05:19:34;-5.20;99.90
58413;DHT22;44209;52.952;6.790;2022-12-18T05:21:59;-5.20;99.90
58413;DHT22;44209;52.952;6.790;2022-12-18T05:24:26;-5.20;99.90
58413;DHT22;44209;52.952;6.790;2022-12-18T05:26:52;-5.20;99.90
58413;DHT22;44209;52.952;6.790;2022-12-18T05:29:18;-5.20;99.90
58413;DHT22;44209;52.952;6.790;2022-12-18T05:31:44;-5.20;99.90
58413;DHT22;44209;52.952;6.790;2022-12-18T05:34:09;-5.20;99.90
58413;DHT22;44209;52.952;6.790;2022-12-18T05:36:35;-5.20;99.90
58413;DHT22;44209;52.952;6.790;2022-12-18T05:39:01;-5.20;99.90
58413;DHT22;44209;52.952;6.790;2022-12-18T05:41:27;-5.20;99.90
58413;DHT22;44209;52.952;6.790;2022-12-18T05:43:53;-5.30;99.90
58413;DHT22;44209;52.952;6.790;2022-12-18T05:46:18;-5.20;99.90
58413;DHT22;44209;52.952;6.790;2022-12-18T05:48:44;-5.20;99.90
58413;DHT22;44209;52.952;6.790;2022-12-18T05:51:14;-5.20;99.90
58413;DHT22;44209;52.952;6.790;2022-12-18T05:53:40;-5.20;99.90
58413;DHT22;44209;52.952;6.790;2022-12-18T05:56:09;-5.20;99.90
58413;DHT22;44209;52.952;6.790;2022-12-18T05:58:35;-5.20;99.90
58413;DHT22;44209;52.952;6.790;2022-12-18T06:01:27;-5.20;99.90
58413;DHT22;44209;52.952;6.790;2022-12-18T06:03:53;-5.20;99.90
58413;DHT22;44209;52.952;6.790;2022-12-18T06:06:22;-5.30;99.90
58413;DHT22;44209;52.952;6.790;2022-12-18T06:08:48;-5.30;99.90
58413;DHT22;44209;52.952;6.790;2022-12-18T06:11:18;-5.30;99.90
58413;DHT22;44209;52.952;6.790;2022-12-18T06:13:44;-5.40;99.90
58413;DHT22;44209;52.952;6.790;2022-12-18T06:16:10;-5.40;99.90
58413;DHT22;44209;52.952;6.790;2022-12-18T06:18:35;-5.50;99.90
58413;DHT22;44209;52.952;6.790;2022-12-18T06:21:01;-5.50;99.90
58413;DHT22;44209;52.952;6.790;2022-12-18T06:23:27;-5.50;99.90
58413;DHT22;44209;52.952;6.790;2022-12-18T06:25:53;-5.60;99.90
58413;DHT22;44209;52.952;6.790;2022-12-18T06:28:19;-5.60;99.90
58413;DHT22;44209;52.952;6.790;2022-12-18T06:30:46;-5.70;99.90
58413;DHT22;44209;52.952;6.790;2022-12-18T06:33:13;-5.70;99.90
58413;DHT22;44209;52.952;6.790;2022-12-18T06:35:40;-5.70;99.90
58413;DHT22;44209;52.952;6.790;2022-12-18T06:38:06;-5.70;99.90
58413;DHT22;44209;52.952;6.790;2022-12-18T06:40:32;-5.70;99.90
58413;DHT22;44209;52.952;6.790;2022-12-18T06:42:58;-5.70;99.90
58413;DHT22;44209;52.952;6.790;2022-12-18T06:45:23;-5.80;99.90
58413;DHT22;44209;52.952;6.790;2022-12-18T06:47:50;-5.80;99.90
58413;DHT22;44209;52.952;6.790;2022-12-18T06:50:16;-5.80;99.90
58413;DHT22;44209;52.952;6.790;2022-12-18T06:52:41;-5.80;99.90
58413;DHT22;44209;52.952;6.790;2022-12-18T06:55:10;-5.90;99.90
58413;DHT22;44209;52.952;6.790;2022-12-18T06:57:36;-5.90;99.90
58413;DHT22;44209;52.952;6.790;2022-12-18T07:00:05;-5.90;99.90
58413;DHT22;44209;52.952;6.790;2022-12-18T07:02:31;-5.90;99.90
58413;DHT22;44209;52.952;6.790;2022-12-18T07:04:57;-5.90;99.90
58413;DHT22;44209;52.952;6.790;2022-12-18T07:07:22;-5.90;99.90
58413;DHT22;44209;52.952;6.790;2022-12-18T07:09:50;-5.90;99.90
58413;DHT22;44209;52.952;6.790;2022-12-18T07:12:16;-5.90;99.90
58413;DHT22;44209;52.952;6.790;2022-12-18T07:14:41;-5.90;99.90
58413;DHT22;44209;52.952;6.790;2022-12-18T07:17:07;-5.90;99.90
58413;DHT22;44209;52.952;6.790;2022-12-18T07:19:33;-5.90;99.90
58413;DHT22;44209;52.952;6.790;2022-12-18T07:21:59;-5.90;99.90
58413;DHT22;44209;52.952;6.790;2022-12-18T07:24:26;-5.90;99.90
58413;DHT22;44209;52.952;6.790;2022-12-18T07:26:51;-5.90;99.90
58413;DHT22;44209;52.952;6.790;2022-12-18T07:29:17;-5.90;99.90
58413;DHT22;44209;52.952;6.790;2022-12-18T07:31:43;-5.90;99.90
58413;DHT22;44209;52.952;6.790;2022-12-18T07:34:13;-5.90;99.90
58413;DHT22;44209;52.952;6.790;2022-12-18T07:36:40;-6.00;99.90
58413;DHT22;44209;52.952;6.790;2022-12-18T07:39:06;-6.00;99.90
58413;DHT22;44209;52.952;6.790;2022-12-18T07:41:32;-6.00;99.90
58413;DHT22;44209;52.952;6.790;2022-12-18T07:43:58;-5.90;99.90
58413;DHT22;44209;52.952;6.790;2022-12-18T07:46:23;-5.90;99.90
58413;DHT22;44209;52.952;6.790;2022-12-18T07:48:49;-5.90;99.90
58413;DHT22;44209;52.952;6.790;2022-12-18T07:51:15;-5.90;99.90
58413;DHT22;44209;52.952;6.790;2022-12-18T07:53:41;-6.00;99.90
58413;DHT22;44209;52.952;6.790;2022-12-18T07:56:11;-5.90;99.90
58413;DHT22;44209;52.952;6.790;2022-12-18T07:58:37;-5.90;99.90
58413;DHT22;44209;52.952;6.790;2022-12-18T08:01:08;-5.90;99.90
58413;DHT22;44209;52.952;6.790;2022-12-18T08:03:35;-5.80;99.90
58413;DHT22;44209;52.952;6.790;2022-12-18T08:06:02;-5.80;99.90
58413;DHT22;44209;52.952;6.790;2022-12-18T08:08:29;-5.80;99.90
58413;DHT22;44209;52.952;6.790;2022-12-18T08:10:55;-5.70;99.90
58413;DHT22;44209;52.952;6.790;2022-12-18T08:13:21;-5.70;99.90
58413;DHT22;44209;52.952;6.790;2022-12-18T08:15:54;-5.60;99.90
58413;DHT22;44209;52.952;6.790;2022-12-18T08:18:20;-5.60;99.90
58413;DHT22;44209;52.952;6.790;2022-12-18T08:20:46;-5.60;99.90
58413;DHT22;44209;52.952;6.790;2022-12-18T08:23:12;-5.50;99.90
58413;DHT22;44209;52.952;6.790;2022-12-18T08:25:37;-5.50;99.90
58413;DHT22;44209;52.952;6.790;2022-12-18T08:28:03;-5.50;99.90
58413;DHT22;44209;52.952;6.790;2022-12-18T08:30:29;-5.40;99.90
58413;DHT22;44209;52.952;6.790;2022-12-18T08:32:55;-5.40;99.90
58413;DHT22;44209;52.952;6.790;2022-12-18T08:35:20;-5.30;99.90
58413;DHT22;44209;52.952;6.790;2022-12-18T08:37:47;-5.30;99.90
58413;DHT22;44209;52.952;6.790;2022-12-18T08:40:12;-5.20;99.90
58413;DHT22;44209;52.952;6.790;2022-12-18T08:42:38;-5.20;99.90
58413;DHT22;44209;52.952;6.790;2022-12-18T08:45:22;-5.10;99.90
58413;DHT22;44209;52.952;6.790;2022-12-18T08:47:50;-5.00;99.90
58413;DHT22;44209;52.952;6.790;2022-12-18T08:50:15;-5.00;99.90
58413;DHT22;44209;52.952;6.790;2022-12-18T08:52:41;-4.90;99.90
58413;DHT22;44209;52.952;6.790;2022-12-18T08:55:08;-4.80;99.90
58413;DHT22;44209;52.952;6.790;2022-12-18T08:57:34;-4.80;99.90
58413;DHT22;44209;52.952;6.790;2022-12-18T08:59:59;-4.80;99.90
58413;DHT22;44209;52.952;6.790;2022-12-18T09:02:25;-4.70;99.90
58413;DHT22;44209;52.952;6.790;2022-12-18T09:04:51;-4.70;99.90
58413;DHT22;44209;52.952;6.790;2022-12-18T09:07:16;-4.70;99.90
58413;DHT22;44209;52.952;6.790;2022-12-18T09:09:42;-4.60;99.90
58413;DHT22;44209;52.952;6.790;2022-12-18T09:12:08;-4.60;99.90
58413;DHT22;44209;52.952;6.790;2022-12-18T09:14:34;-4.50;99.90
58413;DHT22;44209;52.952;6.790;2022-12-18T09:17:00;-4.50;99.90
58413;DHT22;44209;52.952;6.790;2022-12-18T09:19:25;-4.40;99.90
58413;DHT22;44209;52.952;6.790;2022-12-18T09:21:51;-4.30;99.90
58413;DHT22;44209;52.952;6.790;2022-12-18T09:24:17;-4.20;99.90
58413;DHT22;44209;52.952;6.790;2022-12-18T09:26:43;-4.20;99.90
58413;DHT22;44209;52.952;6.790;2022-12-18T09:29:09;-4.10;99.90
58413;DHT22;44209;52.952;6.790;2022-12-18T09:31:36;-4.00;99.90
58413;DHT22;44209;52.952;6.790;2022-12-18T09:34:01;-4.00;99.90
58413;DHT22;44209;52.952;6.790;2022-12-18T09:36:27;-3.90;99.90
58413;DHT22;44209;52.952;6.790;2022-12-18T09:38:53;-3.80;99.90
58413;DHT22;44209;52.952;6.790;2022-12-18T09:41:39;-3.70;99.90
58413;DHT22;44209;52.952;6.790;2022-12-18T09:44:18;-3.60;99.90
58413;DHT22;44209;52.952;6.790;2022-12-18T09:47:10;-3.50;99.90
58413;DHT22;44209;52.952;6.790;2022-12-18T09:49:39;-3.50;99.90
58413;DHT22;44209;52.952;6.790;2022-12-18T09:52:23;-3.40;99.90
58413;DHT22;44209;52.952;6.790;2022-12-18T09:55:00;-3.30;99.90
58413;DHT22;44209;52.952;6.790;2022-12-18T09:57:29;-3.20;99.90
58413;DHT22;44209;52.952;6.790;2022-12-18T10:00:02;-3.10;99.90
58413;DHT22;44209;52.952;6.790;2022-12-18T10:02:32;-3.10;99.90
58413;DHT22;44209;52.952;6.790;2022-12-18T10:05:09;-3.00;99.90
58413;DHT22;44209;52.952;6.790;2022-12-18T10:07:49;-3.00;99.90
58413;DHT22;44209;52.952;6.790;2022-12-18T10:10:42;-2.90;99.90
58413;DHT22;44209;52.952;6.790;2022-12-18T10:13:38;-2.90;99.90
58413;DHT22;44209;52.952;6.790;2022-12-18T10:16:34;-2.80;99.90
58413;DHT22;44209;52.952;6.790;2022-12-18T10:21:48;-2.70;99.90
58413;DHT22;44209;52.952;6.790;2022-12-18T10:26:52;-2.80;99.90
58413;DHT22;44209;52.952;6.790;2022-12-18T10:29:21;-2.80;99.90
58413;DHT22;44209;52.952;6.790;2022-12-18T10:31:48;-2.80;99.90
58413;DHT22;44209;52.952;6.790;2022-12-18T10:34:13;-2.80;99.90
58413;DHT22;44209;52.952;6.790;2022-12-18T10:36:42;-2.80;99.90
58413;DHT22;44209;52.952;6.790;2022-12-18T10:39:18;-2.80;99.90
58413;DHT22;44209;52.952;6.790;2022-12-18T10:41:44;-2.80;99.90
58413;DHT22;44209;52.952;6.790;2022-12-18T10:44:21;-2.80;99.90
58413;DHT22;44209;52.952;6.790;2022-12-18T10:46:49;-2.70;99.90
58413;DHT22;44209;52.952;6.790;2022-12-18T10:49:27;-2.70;99.90
58413;DHT22;44209;52.952;6.790;2022-12-18T10:52:19;-2.60;99.90
58413;DHT22;44209;52.952;6.790;2022-12-18T10:54:52;-2.60;99.90
58413;DHT22;44209;52.952;6.790;2022-12-18T10:57:35;-2.60;99.90
58413;DHT22;44209;52.952;6.790;2022-12-18T11:00:28;-2.60;99.90
58413;DHT22;44209;52.952;6.790;2022-12-18T11:02:55;-2.50;99.90
58413;DHT22;44209;52.952;6.790;2022-12-18T11:05:33;-2.50;99.90
58413;DHT22;44209;52.952;6.790;2022-12-18T11:08:02;-2.50;99.90
58413;DHT22;44209;52.952;6.790;2022-12-18T11:10:37;-2.40;99.90
58413;DHT22;44209;52.952;6.790;2022-12-18T11:13:17;-2.40;99.90
58413;DHT22;44209;52.952;6.790;2022-12-18T11:15:43;-2.40;99.90
58413;DHT22;44209;52.952;6.790;2022-12-18T11:18:25;-2.40;99.90
58413;DHT22;44209;52.952;6.790;2022-12-18T11:20:52;-2.30;99.90
58413;DHT22;44209;52.952;6.790;2022-12-18T11:23:19;-2.20;99.90
58413;DHT22;44209;52.952;6.790;2022-12-18T11:25:55;-2.20;99.90
58413;DHT22;44209;52.952;6.790;2022-12-18T11:28:27;-2.10;99.90
58413;DHT22;44209;52.952;6.790;2022-12-18T11:31:19;-2.10;99.90
58413;DHT22;44209;52.952;6.790;2022-12-18T11:34:02;-2.00;99.90
58413;DHT22;44209;52.952;6.790;2022-12-18T11:36:34;-2.00;99.90
58413;DHT22;44209;52.952;6.790;2022-12-18T11:39:09;-1.90;99.90
58413;DHT22;44209;52.952;6.790;2022-12-18T11:42:08;-1.80;99.90
58413;DHT22;44209;52.952;6.790;2022-12-18T11:44:58;-1.80;99.90
58413;DHT22;44209;52.952;6.790;2022-12-18T11:50:16;-1.70;99.90
58413;DHT22;44209;52.952;6.790;2022-12-18T11:52:43;-1.70;99.90
58413;DHT22;44209;52.952;6.790;2022-12-18T12:14:58;-1.40;99.90
58413;DHT22;44209;52.952;6.790;2022-12-18T12:20:08;-1.20;99.90
58413;DHT22;44209;52.952;6.790;2022-12-18T12:23:17;-1.20;99.90
58413;DHT22;44209;52.952;6.790;2022-12-18T12:34:00;-1.10;99.90
58413;DHT22;44209;52.952;6.790;2022-12-18T12:36:47;-1.10;99.90
58413;DHT22;44209;52.952;6.790;2022-12-18T12:39:21;-1.00;99.90
58413;DHT22;44209;52.952;6.790;2022-12-18T12:41:48;-1.00;99.90
58413;DHT22;44209;52.952;6.790;2022-12-18T12:44:47;-1.00;99.90
58413;DHT22;44209;52.952;6.790;2022-12-18T12:47:21;-0.90;99.90
58413;DHT22;44209;52.952;6.790;2022-12-18T12:49:49;-0.90;99.90
58413;DHT22;44209;52.952;6.790;2022-12-18T12:52:37;-0.90;99.90
58413;DHT22;44209;52.952;6.790;2022-12-18T12:55:13;-0.90;99.90
58413;DHT22;44209;52.952;6.790;2022-12-18T13:00:20;-0.80;99.90
58413;DHT22;44209;52.952;6.790;2022-12-18T13:05:58;-0.80;99.90
58413;DHT22;44209;52.952;6.790;2022-12-18T13:08:32;-0.80;99.90
58413;DHT22;44209;52.952;6.790;2022-12-18T13:11:31;-0.70;99.90
58413;DHT22;44209;52.952;6.790;2022-12-18T13:14:32;-0.70;99.90
58413;DHT22;44209;52.952;6.790;2022-12-18T13:17:15;-0.70;99.90
58413;DHT22;44209;52.952;6.790;2022-12-18T13:19:42;-0.70;99.90
58413;DHT22;44209;52.952;6.790;2022-12-18T13:22:29;-0.70;99.90
58413;DHT22;44209;52.952;6.790;2022-12-18T13:24:56;-0.70;99.90
58413;DHT22;44209;52.952;6.790;2022-12-18T13:38:38;-0.60;99.90
58413;DHT22;44209;52.952;6.790;2022-12-18T13:43:45;-0.70;99.90
58413;DHT22;44209;52.952;6.790;2022-12-18T13:50:35;-0.70;99.90
58413;DHT22;44209;52.952;6.790;2022-12-18T13:53:03;-0.70;99.90
58413;DHT22;44209;52.952;6.790;2022-12-18T13:55:29;-0.70;99.90
58413;DHT22;44209;52.952;6.790;2022-12-18T13:58:05;-0.70;99.90
58413;DHT22;44209;52.952;6.790;2022-12-18T14:00:31;-0.70;99.90
58413;DHT22;44209;52.952;6.790;2022-12-18T14:02:58;-0.70;99.90
58413;DHT22;44209;52.952;6.790;2022-12-18T14:05:27;-0.70;99.90
58413;DHT22;44209;52.952;6.790;2022-12-18T14:07:54;-0.70;99.90
58413;DHT22;44209;52.952;6.790;2022-12-18T14:10:22;-0.70;99.90
58413;DHT22;44209;52.952;6.790;2022-12-18T14:12:49;-0.70;99.90
58413;DHT22;44209;52.952;6.790;2022-12-18T14:17:53;-0.80;99.90
58413;DHT22;44209;52.952;6.790;2022-12-18T14:20:19;-0.80;99.90
58413;DHT22;44209;52.952;6.790;2022-12-18T14:22:47;-0.90;99.90
58413;DHT22;44209;52.952;6.790;2022-12-18T14:25:23;-0.90;99.90
58413;DHT22;44209;52.952;6.790;2022-12-18T14:27:53;-0.90;99.90
58413;DHT22;44209;52.952;6.790;2022-12-18T14:30:37;-1.00;99.90
58413;DHT22;44209;52.952;6.790;2022-12-18T14:35:34;-1.00;99.90
58413;DHT22;44209;52.952;6.790;2022-12-18T14:40:42;-1.10;99.90
58413;DHT22;44209;52.952;6.790;2022-12-18T14:43:11;-1.20;99.90
58413;DHT22;44209;52.952;6.790;2022-12-18T14:45:39;-1.10;99.90
58413;DHT22;44209;52.952;6.790;2022-12-18T14:48:11;-1.20;99.90
58413;DHT22;44209;52.952;6.790;2022-12-18T14:50:39;-1.20;99.90
58413;DHT22;44209;52.952;6.790;2022-12-18T14:53:05;-1.20;99.90
58413;DHT22;44209;52.952;6.790;2022-12-18T14:55:31;-1.20;99.90
58413;DHT22;44209;52.952;6.790;2022-12-18T14:57:57;-1.30;99.90
58413;DHT22;44209;52.952;6.790;2022-12-18T15:00:24;-1.30;99.90
58413;DHT22;44209;52.952;6.790;2022-12-18T15:02:54;-1.30;99.90
58413;DHT22;44209;52.952;6.790;2022-12-18T15:07:52;-1.30;99.90
58413;DHT22;44209;52.952;6.790;2022-12-18T15:23:24;-1.40;99.90
58413;DHT22;44209;52.952;6.790;2022-12-18T15:26:07;-1.40;99.90
58413;DHT22;44209;52.952;6.790;2022-12-18T15:28:54;-1.40;99.90
58413;DHT22;44209;52.952;6.790;2022-12-18T15:31:29;-1.40;99.90
58413;DHT22;44209;52.952;6.790;2022-12-18T15:36:23;-1.40;99.90
58413;DHT22;44209;52.952;6.790;2022-12-18T15:38:50;-1.40;99.90
58413;DHT22;44209;52.952;6.790;2022-12-18T15:41:18;-1.40;99.90
58413;DHT22;44209;52.952;6.790;2022-12-18T15:43:45;-1.40;99.90
58413;DHT22;44209;52.952;6.790;2022-12-18T15:46:20;-1.40;99.90
58413;DHT22;44209;52.952;6.790;2022-12-18T15:48:54;-1.40;99.90
58413;DHT22;44209;52.952;6.790;2022-12-18T15:51:31;-1.40;99.90
58413;DHT22;44209;52.952;6.790;2022-12-18T15:54:00;-1.40;99.90
58413;DHT22;44209;52.952;6.790;2022-12-18T15:56:27;-1.50;99.90
58413;DHT22;44209;52.952;6.790;2022-12-18T15:59:13;-1.50;99.90
58413;DHT22;44209;52.952;6.790;2022-12-18T16:01:39;-1.40;99.90
58413;DHT22;44209;52.952;6.790;2022-12-18T16:04:06;-1.50;99.90
58413;DHT22;44209;52.952;6.790;2022-12-18T16:06:32;-1.50;99.90
58413;DHT22;44209;52.952;6.790;2022-12-18T16:08:57;-1.50;99.90
58413;DHT22;44209;52.952;6.790;2022-12-18T16:11:26;-1.50;99.90
58413;DHT22;44209;52.952;6.790;2022-12-18T16:14:27;-1.50;99.90
58413;DHT22;44209;52.952;6.790;2022-12-18T16:16:57;-1.50;99.90
58413;DHT22;44209;52.952;6.790;2022-12-18T16:19:23;-1.50;99.90
58413;DHT22;44209;52.952;6.790;2022-12-18T16:21:51;-1.40;99.90
58413;DHT22;44209;52.952;6.790;2022-12-18T16:24:22;-1.40;99.90
58413;DHT22;44209;52.952;6.790;2022-12-18T16:26:49;-1.40;99.90
58413;DHT22;44209;52.952;6.790;2022-12-18T16:29:17;-1.40;99.90
58413;DHT22;44209;52.952;6.790;2022-12-18T16:31:42;-1.40;99.90
58413;DHT22;44209;52.952;6.790;2022-12-18T16:34:31;-1.40;99.90
58413;DHT22;44209;52.952;6.790;2022-12-18T16:36:59;-1.40;99.90
58413;DHT22;44209;52.952;6.790;2022-12-18T16:39:26;-1.40;99.90
58413;DHT22;44209;52.952;6.790;2022-12-18T16:41:52;-1.30;99.90
58413;DHT22;44209;52.952;6.790;2022-12-18T16:44:18;-1.30;99.90
58413;DHT22;44209;52.952;6.790;2022-12-18T16:46:44;-1.30;99.90
58413;DHT22;44209;52.952;6.790;2022-12-18T16:49:13;-1.30;99.90
58413;DHT22;44209;52.952;6.790;2022-12-18T16:51:39;-1.30;99.90
58413;DHT22;44209;52.952;6.790;2022-12-18T16:54:05;-1.30;99.90
58413;DHT22;44209;52.952;6.790;2022-12-18T16:56:31;-1.30;99.90
58413;DHT22;44209;52.952;6.790;2022-12-18T16:58:59;-1.30;99.90
58413;DHT22;44209;52.952;6.790;2022-12-18T17:01:28;-1.30;99.90
58413;DHT22;44209;52.952;6.790;2022-12-18T17:04:02;-1.20;99.90
58413;DHT22;44209;52.952;6.790;2022-12-18T17:06:30;-1.20;99.90
58413;DHT22;44209;52.952;6.790;2022-12-18T17:09:00;-1.20;99.90
58413;DHT22;44209;52.952;6.790;2022-12-18T17:11:28;-1.20;99.90
58413;DHT22;44209;52.952;6.790;2022-12-18T17:13:55;-1.20;99.90
58413;DHT22;44209;52.952;6.790;2022-12-18T17:16:21;-1.10;99.90
58413;DHT22;44209;52.952;6.790;2022-12-18T17:18:47;-1.10;99.90
58413;DHT22;44209;52.952;6.790;2022-12-18T17:21:13;-1.00;99.90
58413;DHT22;44209;52.952;6.790;2022-12-18T17:23:40;-1.00;99.90
58413;DHT22;44209;52.952;6.790;2022-12-18T17:26:06;-0.90;99.90
58413;DHT22;44209;52.952;6.790;2022-12-18T17:28:33;-0.90;99.90
58413;DHT22;44209;52.952;6.790;2022-12-18T17:30:59;-0.90;99.90
58413;DHT22;44209;52.952;6.790;2022-12-18T17:33:26;-0.80;99.90
58413;DHT22;44209;52.952;6.790;2022-12-18T17:35:51;-0.80;99.90
58413;DHT22;44209;52.952;6.790;2022-12-18T17:38:17;-0.80;99.90
58413;DHT22;44209;52.952;6.790;2022-12-18T17:40:43;-0.80;99.90
58413;DHT22;44209;52.952;6.790;2022-12-18T17:43:10;-0.80;99.90